createdAt,value
2023-05-10T00:02:26.053Z,14.39
2023-05-10T00:04:54.169Z,14.40
2023-05-10T00:07:21.550Z,14.41
2023-05-10T00:09:48.885Z,14.46
2023-05-10T00:12:16.244Z,14.47
2023-05-10T00:14:43.602Z,14.49
2023-05-10T00:17:10.930Z,14.47
2023-05-10T00:19:38.225Z,14.50
2023-05-10T00:22:05.535Z,14.51
2023-05-10T00:24:32.848Z,14.46
2023-05-10T00:27:00.257Z,14.48
2023-05-10T00:29:29.119Z,14.47
2023-05-10T00:31:57.284Z,14.41
2023-05-10T00:34:25.737Z,14.38
2023-05-10T00:36:53.038Z,14.29
2023-05-10T00:39:20.493Z,14.32
2023-05-10T00:41:48.106Z,14.29
2023-05-10T00:44:15.514Z,14.22
2023-05-10T00:46:43.365Z,14.22
2023-05-10T00:49:10.984Z,14.07
2023-05-10T00:51:38.515Z,14.08
2023-05-10T00:54:06.356Z,14.11
2023-05-10T00:56:34.037Z,14.12
2023-05-10T00:59:01.969Z,14.13
2023-05-10T01:01:29.885Z,14.16
2023-05-10T01:03:58.034Z,14.15
2023-05-10T01:06:25.371Z,14.20
2023-05-10T01:08:52.840Z,14.21
2023-05-10T01:11:20.280Z,14.22
2023-05-10T01:13:53.684Z,14.22
2023-05-10T01:16:21.356Z,14.24
2023-05-10T01:18:49.483Z,14.25
2023-05-10T01:21:42.303Z,14.26
2023-05-10T01:24:18.371Z,14.26
2023-05-10T01:27:04.222Z,14.25
2023-05-10T01:30:15.566Z,14.27
2023-05-10T01:32:46.187Z,14.25
2023-05-10T01:35:38.451Z,14.24
2023-05-10T01:38:31.307Z,14.25
2023-05-10T01:41:21.062Z,14.25
2023-05-10T01:43:55.703Z,14.26
2023-05-10T01:46:40.644Z,14.26
2023-05-10T01:49:24.200Z,14.27
2023-05-10T01:51:55.811Z,14.27
2023-05-10T01:54:25.544Z,14.27
2023-05-10T01:56:59.712Z,14.25
2023-05-10T01:59:30.799Z,14.28
2023-05-10T02:02:00.869Z,14.25
2023-05-10T02:04:29.239Z,14.22
2023-05-10T02:06:57.439Z,14.24
2023-05-10T02:09:28.900Z,14.23
2023-05-10T02:11:58.674Z,14.23
2023-05-10T02:14:27.564Z,14.25
2023-05-10T02:16:56.997Z,14.23
2023-05-10T02:19:26.099Z,14.23
2023-05-10T02:21:55.092Z,14.22
2023-05-10T02:24:25.377Z,14.23
2023-05-10T02:26:55.491Z,14.23
2023-05-10T02:29:28.197Z,14.24
2023-05-10T02:31:56.787Z,14.22
2023-05-10T02:34:27.065Z,14.20
2023-05-10T02:36:55.961Z,14.19
2023-05-10T02:39:25.748Z,14.19
2023-05-10T02:41:54.547Z,14.15
2023-05-10T02:44:23.533Z,14.17
2023-05-10T02:46:51.007Z,14.12
2023-05-10T02:49:19.376Z,14.12
2023-05-10T02:51:57.697Z,14.10
2023-05-10T02:54:32.940Z,14.08
2023-05-10T02:57:03.946Z,14.05
2023-05-10T02:59:31.965Z,14.05
2023-05-10T03:02:01.147Z,14.01
2023-05-10T03:04:28.534Z,13.98
2023-05-10T03:06:56.043Z,13.97
2023-05-10T03:09:23.449Z,13.96
2023-05-10T03:12:15.258Z,13.95
2023-05-10T03:15:01.725Z,13.90
2023-05-10T03:17:47.181Z,13.88
2023-05-10T03:20:30.200Z,13.88
2023-05-10T03:23:20.889Z,13.84
2023-05-10T03:25:51.534Z,13.85
2023-05-10T03:28:21.396Z,13.83
2023-05-10T03:30:50.085Z,13.84
2023-05-10T03:33:17.471Z,13.81
2023-05-10T03:35:46.739Z,13.86
2023-05-10T03:38:14.585Z,13.84
2023-05-10T03:40:41.937Z,13.82
2023-05-10T03:43:09.437Z,13.81
2023-05-10T03:45:37.289Z,13.82
2023-05-10T03:48:05.266Z,13.82
2023-05-10T03:50:32.690Z,13.81
2023-05-10T03:53:00.167Z,13.84
2023-05-10T03:55:27.789Z,13.81
2023-05-10T03:57:55.300Z,13.80
2023-05-10T04:00:25.955Z,13.82
2023-05-10T04:02:53.460Z,13.80
2023-05-10T04:05:21.120Z,13.79
2023-05-10T04:07:50.280Z,13.79
2023-05-10T04:10:18.035Z,13.78
2023-05-10T04:12:45.712Z,13.80
2023-05-10T04:15:13.156Z,13.79
2023-05-10T04:17:40.762Z,13.80
2023-05-10T04:20:09.344Z,13.79
2023-05-10T04:22:36.788Z,13.78
2023-05-10T04:25:05.789Z,13.79
2023-05-10T04:27:34.131Z,13.78
2023-05-10T04:30:01.692Z,13.81
2023-05-10T04:32:29.341Z,13.76
2023-05-10T04:34:56.748Z,13.78
2023-05-10T04:37:24.281Z,13.78
2023-05-10T04:39:51.906Z,13.78
2023-05-10T04:42:19.236Z,13.76
2023-05-10T04:44:46.534Z,13.77
2023-05-10T04:47:14.502Z,13.77
2023-05-10T04:49:41.877Z,13.77
2023-05-10T04:52:09.263Z,13.78
2023-05-10T04:54:36.679Z,13.79
2023-05-10T04:57:04.046Z,13.80
2023-05-10T04:59:31.342Z,13.81
2023-05-10T05:01:58.696Z,13.82
2023-05-10T05:04:26.091Z,13.83
2023-05-10T05:06:53.966Z,13.86
2023-05-10T05:09:21.497Z,13.83
2023-05-10T05:11:49.304Z,13.85
2023-05-10T05:14:16.630Z,13.87
2023-05-10T05:16:44.076Z,13.87
2023-05-10T05:19:11.401Z,13.88
2023-05-10T05:21:38.984Z,13.87
2023-05-10T05:24:06.809Z,13.83
2023-05-10T05:26:34.260Z,13.83
2023-05-10T05:29:01.675Z,13.86
2023-05-10T05:31:29.057Z,13.89
2023-05-10T05:33:56.785Z,13.91
2023-05-10T05:36:24.174Z,13.92
2023-05-10T05:38:51.712Z,13.89
2023-05-10T05:41:19.101Z,13.89
2023-05-10T05:43:46.394Z,13.91
2023-05-10T05:46:13.822Z,14.83
2023-05-10T05:48:41.228Z,15.93
2023-05-10T05:51:08.577Z,16.68
2023-05-10T05:53:37.052Z,17.08
2023-05-10T05:56:04.688Z,17.50
2023-05-10T05:58:32.063Z,17.48
2023-05-10T06:00:59.580Z,17.84
2023-05-10T06:03:27.067Z,17.93
2023-05-10T06:05:54.439Z,18.09
2023-05-10T06:08:21.921Z,18.18
2023-05-10T06:10:49.389Z,18.19
2023-05-10T06:13:16.685Z,18.22
2023-05-10T06:15:44.147Z,18.31
2023-05-10T06:18:11.484Z,17.98
2023-05-10T06:20:38.973Z,18.03
2023-05-10T06:23:06.406Z,18.01
2023-05-10T06:25:33.884Z,17.96
2023-05-10T06:28:01.353Z,18.06
2023-05-10T06:30:30.660Z,18.21
2023-05-10T06:32:58.292Z,18.36
2023-05-10T06:35:25.826Z,18.22
2023-05-10T06:37:53.485Z,18.10
2023-05-10T06:40:20.938Z,18.11
2023-05-10T06:42:49.181Z,18.07
2023-05-10T06:45:17.583Z,18.20
2023-05-10T06:47:45.361Z,18.45
2023-05-10T06:50:13.100Z,18.31
2023-05-10T06:52:40.746Z,18.18
2023-05-10T06:55:09.434Z,17.96
2023-05-10T06:57:36.750Z,17.76
2023-05-10T07:00:05.920Z,17.37
2023-05-10T07:02:33.482Z,17.44
2023-05-10T07:05:02.756Z,17.82
2023-05-10T07:07:30.939Z,18.01
2023-05-10T07:09:58.782Z,18.19
2023-05-10T07:12:26.726Z,18.13
2023-05-10T07:14:54.381Z,18.29
2023-05-10T07:17:22.018Z,18.33
2023-05-10T07:19:49.548Z,18.28
2023-05-10T07:22:17.758Z,18.29
2023-05-10T07:24:45.143Z,18.45
2023-05-10T07:27:13.851Z,18.52
2023-05-10T07:29:41.404Z,18.26
2023-05-10T07:32:08.958Z,18.30
2023-05-10T07:34:36.452Z,18.42
2023-05-10T07:37:03.868Z,18.47
2023-05-10T07:39:31.203Z,18.47
2023-05-10T07:41:58.494Z,18.52
2023-05-10T07:44:25.878Z,18.66
2023-05-10T07:46:53.550Z,18.72
2023-05-10T07:49:21.014Z,18.81
2023-05-10T07:51:48.336Z,18.82
2023-05-10T07:54:16.007Z,18.84
2023-05-10T07:56:48.007Z,18.86
2023-05-10T07:59:18.006Z,18.80
2023-05-10T08:01:46.159Z,18.84
2023-05-10T08:04:13.820Z,18.89
2023-05-10T08:06:41.894Z,18.91
2023-05-10T08:09:10.825Z,18.90
2023-05-10T08:11:38.228Z,18.93
2023-05-10T08:14:05.649Z,18.93
2023-05-10T08:16:33.538Z,18.91
2023-05-10T08:19:01.091Z,18.94
2023-05-10T08:21:28.449Z,18.93
2023-05-10T08:23:55.861Z,18.93
2023-05-10T08:26:23.224Z,18.96
2023-05-10T08:28:50.671Z,18.96
2023-05-10T08:31:19.065Z,18.97
2023-05-10T08:33:46.581Z,18.98
2023-05-10T08:36:15.317Z,18.98
2023-05-10T08:38:42.659Z,18.99
2023-05-10T08:41:11.113Z,18.99
2023-05-10T08:43:39.489Z,19.01
2023-05-10T08:46:08.786Z,19.02
2023-05-10T08:48:36.988Z,19.03
2023-05-10T08:51:05.221Z,19.02
2023-05-10T08:53:34.295Z,19.00
2023-05-10T08:56:03.438Z,19.01
2023-05-10T08:58:31.822Z,19.02
2023-05-10T09:01:00.816Z,19.02
2023-05-10T09:03:28.253Z,19.04
2023-05-10T09:05:56.902Z,19.04
2023-05-10T09:08:28.189Z,19.05
2023-05-10T09:10:57.076Z,19.05
2023-05-10T09:13:25.734Z,19.05
2023-05-10T09:15:53.993Z,19.04
2023-05-10T09:18:21.370Z,19.02
2023-05-10T09:20:49.607Z,19.04
2023-05-10T09:23:16.900Z,19.04
2023-05-10T09:25:44.341Z,19.06
2023-05-10T09:28:12.273Z,19.08
2023-05-10T09:30:40.331Z,19.05
2023-05-10T09:33:08.050Z,19.08
2023-05-10T09:35:35.588Z,19.07
2023-05-10T09:38:05.889Z,19.08
2023-05-10T09:40:33.738Z,19.25
2023-05-10T09:43:02.238Z,19.19
2023-05-10T09:45:36.146Z,19.15
2023-05-10T09:48:06.130Z,19.14
2023-05-10T09:50:35.151Z,19.12
2023-05-10T09:53:04.847Z,19.12
2023-05-10T09:55:45.881Z,19.13
2023-05-10T09:58:15.135Z,19.13
2023-05-10T10:00:44.699Z,19.19
2023-05-10T10:03:17.028Z,19.23
2023-05-10T10:05:47.048Z,19.22
2023-05-10T10:08:15.169Z,19.22
2023-05-10T10:10:43.509Z,19.56
2023-05-10T10:13:10.948Z,19.61
2023-05-10T10:15:38.386Z,19.43
2023-05-10T10:18:07.787Z,19.36
2023-05-10T10:20:38.178Z,19.31
2023-05-10T10:23:05.492Z,19.28
2023-05-10T10:25:33.228Z,19.32
2023-05-10T10:28:28.274Z,19.44
2023-05-10T10:31:01.172Z,19.60
2023-05-10T10:33:31.874Z,19.48
2023-05-10T10:36:04.223Z,19.38
2023-05-10T10:39:00.567Z,19.32
2023-05-10T10:42:00.977Z,19.28
2023-05-10T10:44:28.541Z,19.28
2023-05-10T10:47:03.786Z,19.29
2023-05-10T10:49:38.785Z,19.31
2023-05-10T10:52:16.856Z,19.32
2023-05-10T10:54:58.782Z,19.33
2023-05-10T10:57:27.665Z,19.37
2023-05-10T11:00:21.879Z,19.33
2023-05-10T11:03:07.765Z,19.31
2023-05-10T11:05:45.481Z,19.55
2023-05-10T11:08:30.634Z,19.36
2023-05-10T11:11:00.910Z,19.34
2023-05-10T11:13:51.577Z,19.33
2023-05-10T11:16:19.154Z,19.36
2023-05-10T11:19:08.800Z,19.35
2023-05-10T11:21:52.929Z,19.34
2023-05-10T11:24:23.335Z,19.34
2023-05-10T11:26:54.326Z,19.35
2023-05-10T11:29:21.751Z,19.35
2023-05-10T11:31:50.446Z,19.39
2023-05-10T11:34:28.918Z,19.60
2023-05-10T11:36:57.526Z,19.77
2023-05-10T11:39:32.800Z,19.65
2023-05-10T11:42:00.535Z,19.57
2023-05-10T11:44:32.623Z,19.56
2023-05-10T11:47:01.733Z,19.54
2023-05-10T11:49:29.383Z,19.62
2023-05-10T11:52:07.156Z,19.55
2023-05-10T11:54:36.050Z,19.52
2023-05-10T11:57:04.043Z,19.48
2023-05-10T11:59:31.456Z,19.47
2023-05-10T12:01:59.016Z,19.45
2023-05-10T12:04:27.032Z,19.42
2023-05-10T12:06:54.515Z,19.45
2023-05-10T12:09:35.548Z,19.43
2023-05-10T12:12:09.183Z,19.43
2023-05-10T12:14:36.954Z,19.43
2023-05-10T12:17:04.405Z,19.43
2023-05-10T12:19:39.653Z,19.44
2023-05-10T12:22:07.472Z,19.43
2023-05-10T12:24:39.791Z,19.44
2023-05-10T12:29:55.683Z,19.44
2023-05-10T12:32:38.098Z,19.46
2023-05-10T12:35:05.931Z,19.45
2023-05-10T12:37:36.750Z,19.47
2023-05-10T12:40:05.991Z,19.49
2023-05-10T12:42:33.376Z,19.48
2023-05-10T12:45:00.600Z,19.49
2023-05-10T12:47:28.144Z,19.48
2023-05-10T12:49:55.584Z,19.49
2023-05-10T12:52:22.958Z,19.49
2023-05-10T12:54:50.340Z,19.49
2023-05-10T12:57:17.973Z,19.50
2023-05-10T12:59:45.360Z,19.49
2023-05-10T13:02:12.740Z,19.50
2023-05-10T13:04:40.851Z,19.49
2023-05-10T13:07:08.631Z,19.51
2023-05-10T13:09:36.196Z,19.51
2023-05-10T13:12:03.967Z,19.51
2023-05-10T13:14:31.883Z,19.52
2023-05-10T13:16:59.417Z,19.51
2023-05-10T13:19:27.884Z,19.52
2023-05-10T13:21:55.351Z,19.52
2023-05-10T13:24:22.702Z,19.52
2023-05-10T13:26:50.358Z,19.53
2023-05-10T13:29:19.037Z,19.55
2023-05-10T13:31:46.668Z,19.55
2023-05-10T13:34:14.067Z,19.55
2023-05-10T13:36:41.368Z,19.55
2023-05-10T13:39:09.468Z,19.56
2023-05-10T13:41:37.717Z,19.58
2023-05-10T13:44:05.025Z,19.57
2023-05-10T13:46:32.369Z,19.57
2023-05-10T13:48:59.727Z,19.56
2023-05-10T13:51:26.968Z,19.58
2023-05-10T13:53:54.291Z,19.57
2023-05-10T13:56:21.607Z,19.57
2023-05-10T13:58:48.899Z,19.58
2023-05-10T14:01:16.352Z,19.57
2023-05-10T14:03:43.878Z,19.57
2023-05-10T14:06:11.342Z,19.58
2023-05-10T14:08:38.658Z,19.58
2023-05-10T14:11:06.130Z,19.59
2023-05-10T14:13:33.816Z,19.59
2023-05-10T14:16:01.741Z,19.60
2023-05-10T14:18:29.329Z,19.59
2023-05-10T14:20:56.750Z,19.58
2023-05-10T14:23:29.643Z,19.59
2023-05-10T14:25:57.400Z,19.61
2023-05-10T14:28:25.996Z,19.60
2023-05-10T14:30:53.388Z,19.60
2023-05-10T14:33:21.714Z,19.61
2023-05-10T14:35:49.073Z,19.61
2023-05-10T14:38:16.625Z,19.61
2023-05-10T14:40:44.422Z,19.62
2023-05-10T14:43:11.786Z,19.61
2023-05-10T14:45:39.192Z,19.61
2023-05-10T14:48:06.924Z,19.63
2023-05-10T14:50:36.532Z,19.61
2023-05-10T14:53:04.676Z,19.61
2023-05-10T14:55:32.165Z,19.63
2023-05-10T14:57:59.605Z,19.64
2023-05-10T15:00:28.489Z,20.23
2023-05-10T15:02:56.278Z,19.05
2023-05-10T15:05:24.388Z,18.90
2023-05-10T15:07:52.297Z,18.82
2023-05-10T15:10:19.898Z,18.47
2023-05-10T15:12:48.409Z,18.28
2023-05-10T15:15:16.185Z,18.45
2023-05-10T15:17:43.739Z,18.29
2023-05-10T15:20:11.330Z,18.36
2023-05-10T15:22:39.224Z,18.15
2023-05-10T15:25:07.034Z,18.20
2023-05-10T15:27:34.446Z,17.99
2023-05-10T15:30:02.195Z,18.08
2023-05-10T15:32:32.530Z,17.95
2023-05-10T15:35:00.351Z,17.97
2023-05-10T15:37:28.446Z,17.91
2023-05-10T15:40:02.450Z,17.87
2023-05-10T15:42:32.962Z,17.83
2023-05-10T15:45:00.702Z,17.78
2023-05-10T15:47:31.160Z,17.66
2023-05-10T15:49:58.575Z,17.67
2023-05-10T15:52:25.993Z,17.66
2023-05-10T15:54:53.430Z,17.70
2023-05-10T15:57:20.713Z,17.62
2023-05-10T15:59:48.088Z,17.49
2023-05-10T16:02:16.063Z,17.48
2023-05-10T16:04:44.689Z,17.33
2023-05-10T16:07:12.069Z,17.30
2023-05-10T16:09:39.485Z,17.36
2023-05-10T16:12:08.052Z,17.38
2023-05-10T16:14:35.526Z,17.33
2023-05-10T16:17:04.283Z,17.32
2023-05-10T16:19:31.754Z,17.33
2023-05-10T16:21:59.284Z,17.34
2023-05-10T16:24:27.117Z,17.38
2023-05-10T16:26:54.557Z,17.26
2023-05-10T16:29:21.958Z,17.43
2023-05-10T16:31:49.259Z,17.31
2023-05-10T16:34:16.773Z,17.38
2023-05-10T16:36:44.155Z,17.35
2023-05-10T16:39:11.463Z,17.25
2023-05-10T16:41:38.876Z,17.42
2023-05-10T16:44:06.581Z,17.39
2023-05-10T16:46:33.975Z,17.50
2023-05-10T16:49:01.470Z,17.28
2023-05-10T16:51:29.417Z,17.40
2023-05-10T16:53:56.845Z,17.38
2023-05-10T16:56:24.465Z,17.37
2023-05-10T16:58:52.074Z,17.26
2023-05-10T17:01:19.651Z,17.27
2023-05-10T17:03:47.195Z,17.30
2023-05-10T17:06:14.692Z,17.26
2023-05-10T17:08:42.193Z,17.32
2023-05-10T17:11:09.536Z,17.28
2023-05-10T17:13:38.804Z,17.19
2023-05-10T17:16:06.226Z,17.23
2023-05-10T17:18:33.743Z,17.13
2023-05-10T17:21:01.110Z,17.18
2023-05-10T17:23:28.606Z,17.14
2023-05-10T17:25:56.382Z,17.06
2023-05-10T17:28:23.744Z,16.96
2023-05-10T17:30:57.490Z,17.01
2023-05-10T17:33:24.955Z,16.99
2023-05-10T17:35:52.647Z,16.96
2023-05-10T17:38:20.088Z,16.95
2023-05-10T17:40:47.469Z,16.91
2023-05-10T17:43:14.905Z,16.77
2023-05-10T17:45:42.544Z,16.74
2023-05-10T17:48:11.448Z,16.80
2023-05-10T17:50:41.713Z,16.78
2023-05-10T17:53:09.575Z,16.72
2023-05-10T17:55:39.948Z,16.69
2023-05-10T17:58:07.346Z,16.63
2023-05-10T18:00:34.752Z,16.62
2023-05-10T18:03:03.650Z,16.64
2023-05-10T18:05:31.680Z,16.61
2023-05-10T18:07:59.178Z,16.67
2023-05-10T18:10:26.553Z,16.62
2023-05-10T18:12:54.193Z,16.56
2023-05-10T18:15:21.891Z,16.49
2023-05-10T18:17:50.433Z,16.49
2023-05-10T18:20:18.601Z,16.48
2023-05-10T18:22:45.997Z,16.43
2023-05-10T18:25:13.397Z,16.37
2023-05-10T18:27:40.780Z,16.37
2023-05-10T18:30:10.142Z,16.34
2023-05-10T18:32:38.483Z,16.32
2023-05-10T18:35:07.651Z,16.29
2023-05-10T18:37:35.626Z,16.27
2023-05-10T18:40:05.007Z,16.29
2023-05-10T18:42:32.388Z,16.23
2023-05-10T18:44:59.662Z,16.21
2023-05-10T18:47:27.049Z,16.19
2023-05-10T18:49:55.186Z,16.14
2023-05-10T18:52:22.547Z,16.10
2023-05-10T18:54:50.495Z,16.07
2023-05-10T18:57:17.903Z,16.10
2023-05-10T18:59:45.329Z,16.04
2023-05-10T19:02:12.757Z,16.01
2023-05-10T19:04:40.152Z,15.99
2023-05-10T19:07:07.471Z,15.98
2023-05-10T19:09:34.778Z,15.99
2023-05-10T19:12:02.096Z,15.91
2023-05-10T19:14:29.762Z,15.92
2023-05-10T19:16:57.203Z,15.87
2023-05-10T19:19:24.682Z,15.85
2023-05-10T19:21:52.087Z,15.79
2023-05-10T19:24:24.152Z,15.74
2023-05-10T19:26:52.015Z,15.73
2023-05-10T19:29:19.375Z,15.66
2023-05-10T19:31:47.132Z,15.66
2023-05-10T19:34:14.532Z,15.64
2023-05-10T19:36:41.964Z,15.62
2023-05-10T19:39:09.513Z,15.60
2023-05-10T19:41:37.039Z,15.59
2023-05-10T19:44:04.739Z,15.56
2023-05-10T19:46:32.493Z,15.58
2023-05-10T19:48:59.816Z,15.54
2023-05-10T19:51:27.260Z,15.52
2023-05-10T19:53:54.564Z,15.50
2023-05-10T19:56:21.883Z,15.48
2023-05-10T19:58:49.266Z,15.50
2023-05-10T20:01:16.604Z,15.45
2023-05-10T20:03:44.008Z,15.46
2023-05-10T20:06:11.985Z,15.41
2023-05-10T20:08:39.337Z,15.38
2023-05-10T20:11:06.636Z,15.38
2023-05-10T20:13:33.942Z,15.34
2023-05-10T20:16:02.262Z,15.33
2023-05-10T20:18:29.588Z,15.29
2023-05-10T20:20:59.216Z,15.26
2023-05-10T20:23:27.076Z,15.24
2023-05-10T20:25:55.218Z,15.22
2023-05-10T20:28:26.380Z,15.19
2023-05-10T20:30:55.139Z,15.13
2023-05-10T20:33:25.779Z,15.13
2023-05-10T20:35:53.107Z,15.13
2023-05-10T20:38:21.068Z,15.12
2023-05-10T20:40:49.042Z,15.08
2023-05-10T20:43:16.408Z,15.05
2023-05-10T20:45:44.257Z,15.02
2023-05-10T20:48:11.686Z,14.98
2023-05-10T20:50:39.025Z,14.96
2023-05-10T20:53:06.474Z,14.91
2023-05-10T20:55:33.861Z,14.94
2023-05-10T20:58:03.442Z,14.93
2023-05-10T21:00:32.160Z,14.89
2023-05-10T21:02:59.508Z,14.84
2023-05-10T21:05:27.172Z,14.83
2023-05-10T21:07:54.643Z,14.84
2023-05-10T21:10:22.098Z,14.81
2023-05-10T21:12:49.780Z,14.84
2023-05-10T21:15:17.638Z,14.80
2023-05-10T21:17:45.858Z,14.81
2023-05-10T21:20:13.680Z,14.85
2023-05-10T21:22:41.422Z,14.78
2023-05-10T21:25:09.197Z,14.77
2023-05-10T21:27:36.961Z,14.78
2023-05-10T21:30:04.818Z,14.77
2023-05-10T21:32:32.234Z,14.78
2023-05-10T21:34:59.586Z,14.77
2023-05-10T21:37:26.884Z,14.72
2023-05-10T21:39:54.238Z,14.70
2023-05-10T21:42:21.608Z,14.71
2023-05-10T21:44:48.991Z,14.67
2023-05-10T21:47:17.266Z,14.69
2023-05-10T21:49:44.765Z,14.66
2023-05-10T21:52:12.155Z,14.67
2023-05-10T21:54:39.682Z,14.65
2023-05-10T21:57:07.049Z,14.64
2023-05-10T21:59:34.627Z,14.61
2023-05-10T22:02:01.974Z,14.59
2023-05-10T22:04:29.297Z,14.57
2023-05-10T22:06:56.619Z,14.58
2023-05-10T22:09:25.418Z,14.57
2023-05-10T22:11:52.806Z,14.55
2023-05-10T22:14:20.286Z,14.53
2023-05-10T22:16:47.661Z,14.51
2023-05-10T22:19:15.009Z,14.51
2023-05-10T22:21:42.473Z,14.50
2023-05-10T22:24:09.795Z,14.47
2023-05-10T22:26:37.183Z,14.48
2023-05-10T22:29:04.878Z,14.50
2023-05-10T22:31:32.376Z,14.46
2023-05-10T22:33:59.960Z,14.45
2023-05-10T22:36:27.400Z,14.43
2023-05-10T22:38:55.080Z,14.44
2023-05-10T22:41:23.195Z,14.45
2023-05-10T22:43:50.641Z,14.45
2023-05-10T22:46:18.190Z,14.44
2023-05-10T22:48:45.625Z,14.44
2023-05-10T22:51:12.903Z,14.43
2023-05-10T22:53:40.659Z,14.41
2023-05-10T22:56:08.166Z,14.45
2023-05-10T22:58:35.738Z,14.41
2023-05-10T23:01:03.162Z,14.37
2023-05-10T23:03:30.821Z,14.37
2023-05-10T23:05:58.164Z,14.37
2023-05-10T23:08:25.507Z,14.33
2023-05-10T23:10:52.895Z,14.37
2023-05-10T23:13:21.853Z,14.33
2023-05-10T23:15:49.269Z,14.32
2023-05-10T23:18:16.861Z,14.29
2023-05-10T23:20:44.386Z,14.27
2023-05-10T23:23:11.865Z,14.26
2023-05-10T23:25:39.297Z,14.26
2023-05-10T23:28:06.797Z,14.27
2023-05-10T23:30:34.397Z,14.25
2023-05-10T23:33:01.773Z,14.24
2023-05-10T23:35:29.074Z,14.25
2023-05-10T23:37:56.347Z,14.24
2023-05-10T23:40:23.713Z,14.22
2023-05-10T23:42:51.685Z,14.20
2023-05-10T23:45:19.175Z,14.22
2023-05-10T23:47:46.709Z,14.21
2023-05-10T23:50:14.064Z,14.19
2023-05-10T23:52:41.385Z,14.18
2023-05-10T23:55:09.477Z,14.19
2023-05-10T23:57:37.094Z,14.20
